createdAt,value
2023-04-15T00:01:10.051Z,5.25
2023-04-15T00:03:40.649Z,5.20
2023-04-15T00:06:09.835Z,6.80
2023-04-15T00:08:38.606Z,5.55
2023-04-15T00:11:07.255Z,4.38
2023-04-15T00:13:36.035Z,6.07
2023-04-15T00:16:04.485Z,4.83
2023-04-15T00:18:32.973Z,6.53
2023-04-15T00:21:03.029Z,6.13
2023-04-15T00:23:32.280Z,4.80
2023-04-15T00:26:00.738Z,6.03
2023-04-15T00:28:29.600Z,8.50
2023-04-15T00:30:58.270Z,3.97
2023-04-15T00:33:26.806Z,3.70
2023-04-15T00:35:55.234Z,5.35
2023-04-15T00:38:25.054Z,3.63
2023-04-15T00:40:54.182Z,4.80
2023-04-15T00:43:22.642Z,6.60
2023-04-15T00:45:53.722Z,4.70
2023-04-15T00:48:22.558Z,4.72
2023-04-15T00:50:51.013Z,6.68
2023-04-15T00:53:19.716Z,7.03
2023-04-15T00:55:49.747Z,5.78
2023-04-15T00:58:18.401Z,4.95
2023-04-15T01:00:47.290Z,5.10
2023-04-15T01:03:16.603Z,5.07
2023-04-15T01:05:45.134Z,4.83
2023-04-15T01:08:13.921Z,5.60
2023-04-15T01:10:42.630Z,5.18
2023-04-15T01:13:12.451Z,5.65
2023-04-15T01:15:41.494Z,5.45
2023-04-15T01:18:10.127Z,3.93
2023-04-15T01:20:38.671Z,4.80
2023-04-15T01:23:07.628Z,5.63
2023-04-15T01:25:37.527Z,4.57
2023-04-15T01:28:06.346Z,4.82
2023-04-15T01:30:36.100Z,5.90
2023-04-15T01:33:04.986Z,5.10
2023-04-15T01:35:33.498Z,5.40
2023-04-15T01:38:07.681Z,3.97
2023-04-15T01:40:37.808Z,4.60
2023-04-15T01:43:06.274Z,3.50
2023-04-15T01:45:34.989Z,6.32
2023-04-15T01:48:03.682Z,5.28
2023-04-15T01:50:32.415Z,4.13
2023-04-15T01:53:00.814Z,4.05
2023-04-15T01:55:29.299Z,5.90
2023-04-15T01:57:59.321Z,4.63
2023-04-15T02:00:27.759Z,6.30
2023-04-15T02:02:56.329Z,4.35
2023-04-15T02:05:25.325Z,4.63
2023-04-15T02:07:54.315Z,4.83
2023-04-15T02:10:23.375Z,6.18
2023-04-15T02:12:51.820Z,4.93
2023-04-15T02:15:21.683Z,5.60
2023-04-15T02:17:51.176Z,4.20
2023-04-15T02:20:22.540Z,3.67
2023-04-15T02:22:51.668Z,5.38
2023-04-15T02:25:20.571Z,4.60
2023-04-15T02:27:49.249Z,3.25
2023-04-15T02:30:18.096Z,4.40
2023-04-15T02:32:48.496Z,5.67
2023-04-15T02:35:19.429Z,4.13
2023-04-15T02:37:47.851Z,4.47
2023-04-15T02:40:16.256Z,4.53
2023-04-15T02:42:45.351Z,5.30
2023-04-15T02:45:14.215Z,4.73
2023-04-15T02:47:43.375Z,5.25
2023-04-15T02:50:15.389Z,5.00
2023-04-15T02:52:44.753Z,4.60
2023-04-15T02:55:13.573Z,4.30
2023-04-15T02:57:42.093Z,4.53
2023-04-15T03:00:12.192Z,5.15
2023-04-15T03:02:42.297Z,3.90
2023-04-15T03:05:16.098Z,4.78
2023-04-15T03:07:44.619Z,5.22
2023-04-15T03:10:13.098Z,4.70
2023-04-15T03:12:41.861Z,5.63
2023-04-15T03:15:11.868Z,5.30
2023-04-15T03:17:40.344Z,4.82
2023-04-15T03:20:10.426Z,6.13
2023-04-15T03:22:40.297Z,6.27
2023-04-15T03:25:09.516Z,4.05
2023-04-15T03:27:39.139Z,5.50
2023-04-15T03:30:09.578Z,4.65
2023-04-15T03:32:38.072Z,5.53
2023-04-15T03:35:07.558Z,5.00
2023-04-15T03:37:36.325Z,4.75
2023-04-15T03:40:07.458Z,4.68
2023-04-15T03:42:36.282Z,4.20
2023-04-15T03:45:05.249Z,4.95
2023-04-15T03:47:33.654Z,6.00
2023-04-15T03:50:02.085Z,8.25
2023-04-15T03:52:30.546Z,4.85
2023-04-15T03:54:58.944Z,3.67
2023-04-15T03:57:28.785Z,4.75
2023-04-15T03:59:57.299Z,5.80
2023-04-15T04:02:26.033Z,6.40
2023-04-15T04:04:54.557Z,5.97
2023-04-15T04:07:25.809Z,5.88
2023-04-15T04:09:54.349Z,5.05
2023-04-15T04:12:22.765Z,5.87
2023-04-15T04:14:52.818Z,6.20
2023-04-15T04:17:21.224Z,4.40
2023-04-15T04:19:49.892Z,3.95
2023-04-15T04:22:18.303Z,7.70
2023-04-15T04:24:46.936Z,6.80
2023-04-15T04:27:15.742Z,4.18
2023-04-15T04:29:44.315Z,6.13
2023-04-15T04:32:14.225Z,4.90
2023-04-15T04:34:42.763Z,4.60
2023-04-15T04:37:11.430Z,5.33
2023-04-15T04:39:40.123Z,5.10
2023-04-15T04:42:08.583Z,5.30
2023-04-15T04:44:37.287Z,4.15
2023-04-15T04:47:06.606Z,5.22
2023-04-15T04:49:36.899Z,5.50
2023-04-15T04:52:05.818Z,5.30
2023-04-15T04:54:34.242Z,5.32
2023-04-15T04:57:03.087Z,5.50
2023-04-15T04:59:31.899Z,6.75
2023-04-15T05:02:00.739Z,5.70
2023-04-15T05:04:29.242Z,5.30
2023-04-15T05:06:59.372Z,4.35
2023-04-15T05:09:28.410Z,6.30
2023-04-15T05:11:56.819Z,4.25
2023-04-15T05:14:25.316Z,4.80
2023-04-15T05:16:53.772Z,6.47
2023-04-15T05:19:22.214Z,4.97
2023-04-15T05:21:50.643Z,4.28
2023-04-15T05:24:21.281Z,4.88
2023-04-15T05:26:49.685Z,4.50
2023-04-15T05:29:18.328Z,5.57
2023-04-15T05:31:46.943Z,5.65
2023-04-15T05:34:16.595Z,6.40
2023-04-15T05:36:45.023Z,7.30
2023-04-15T05:39:13.704Z,7.30
2023-04-15T05:41:43.564Z,7.05
2023-04-15T05:44:12.039Z,5.65
2023-04-15T05:46:40.913Z,5.90
2023-04-15T05:49:09.383Z,5.10
2023-04-15T05:51:37.856Z,8.17
2023-04-15T05:54:06.908Z,4.22
2023-04-15T05:56:35.526Z,11.43
2023-04-15T05:59:05.326Z,11.27
2023-04-15T06:01:35.648Z,7.80
2023-04-15T06:04:04.207Z,7.97
2023-04-15T06:06:33.678Z,9.23
2023-04-15T06:09:02.774Z,9.25
2023-04-15T06:11:31.486Z,9.55
2023-04-15T06:13:59.928Z,10.82
2023-04-15T06:16:29.819Z,9.77
2023-04-15T06:18:58.254Z,11.15
2023-04-15T06:21:27.082Z,10.68
2023-04-15T06:23:56.697Z,7.82
2023-04-15T06:26:25.134Z,8.80
2023-04-15T06:28:53.521Z,10.50
2023-04-15T06:31:21.923Z,10.32
2023-04-15T06:33:51.817Z,124.63
2023-04-15T06:36:20.347Z,119.65
2023-04-15T06:38:48.788Z,30.10
2023-04-15T06:41:17.218Z,22.27
2023-04-15T06:43:45.694Z,19.40
2023-04-15T06:46:14.156Z,21.52
2023-04-15T06:48:42.593Z,15.80
2023-04-15T06:51:12.731Z,11.50
2023-04-15T06:53:42.800Z,12.27
2023-04-15T06:56:11.644Z,8.88
2023-04-15T06:58:40.046Z,6.25
2023-04-15T07:01:08.490Z,6.72
2023-04-15T07:03:37.147Z,6.15
2023-04-15T07:06:07.158Z,5.97
2023-04-15T07:08:36.981Z,5.85
2023-04-15T07:11:05.524Z,7.53
2023-04-15T07:13:34.641Z,8.48
2023-04-15T07:16:03.073Z,6.95
2023-04-15T07:18:31.466Z,9.20
2023-04-15T07:20:59.869Z,5.90
2023-04-15T07:23:28.336Z,7.15
2023-04-15T07:25:58.582Z,13.23
2023-04-15T07:28:27.032Z,5.88
2023-04-15T07:30:57.372Z,7.70
2023-04-15T07:33:25.916Z,6.82
2023-04-15T07:35:54.670Z,6.97
2023-04-15T07:38:24.065Z,4.80
2023-04-15T07:40:52.558Z,5.72
2023-04-15T07:43:22.690Z,7.10
2023-04-15T07:45:51.359Z,13.95
2023-04-15T07:48:19.842Z,121.15
2023-04-15T07:50:48.512Z,88.25
2023-04-15T07:53:16.931Z,83.22
2023-04-15T07:55:45.662Z,52.80
2023-04-15T07:58:14.073Z,39.85
2023-04-15T08:00:43.927Z,28.73
2023-04-15T08:03:12.495Z,15.35
2023-04-15T08:05:41.118Z,12.60
2023-04-15T08:08:09.488Z,10.03
2023-04-15T08:10:39.091Z,8.80
2023-04-15T08:13:08.055Z,9.90
2023-04-15T08:15:36.892Z,8.30
2023-04-15T08:18:07.327Z,8.30
2023-04-15T08:20:35.760Z,8.03
2023-04-15T08:23:04.729Z,7.95
2023-04-15T08:25:33.445Z,7.15
2023-04-15T08:28:07.174Z,6.82
2023-04-15T08:30:35.700Z,7.50
2023-04-15T08:33:04.188Z,6.40
2023-04-15T08:35:33.973Z,7.65
2023-04-15T08:38:02.794Z,8.73
2023-04-15T08:40:41.620Z,5.72
2023-04-15T08:43:12.632Z,6.88
2023-04-15T08:45:41.305Z,8.43
2023-04-15T08:48:11.479Z,7.70
2023-04-15T08:50:42.131Z,7.22
2023-04-15T08:53:11.380Z,6.32
2023-04-15T08:55:46.155Z,8.38
2023-04-15T08:58:17.282Z,7.13
2023-04-15T09:00:45.861Z,9.80
2023-04-15T09:03:14.460Z,8.90
2023-04-15T09:05:44.502Z,8.80
2023-04-15T09:08:13.290Z,8.18
2023-04-15T09:10:41.755Z,6.77
2023-04-15T09:13:10.774Z,8.20
2023-04-15T09:15:40.651Z,5.45
2023-04-15T09:18:09.344Z,8.90
2023-04-15T09:20:43.109Z,5.25
2023-04-15T09:23:17.598Z,4.90
2023-04-15T09:25:46.700Z,4.22
2023-04-15T09:28:15.313Z,6.25
2023-04-15T09:30:46.606Z,5.88
2023-04-15T09:33:16.749Z,5.45
2023-04-15T09:36:01.035Z,5.27
2023-04-15T09:38:30.491Z,3.42
2023-04-15T09:41:00.006Z,5.03
2023-04-15T09:43:40.983Z,5.47
2023-04-15T09:46:09.504Z,8.77
2023-04-15T09:48:38.294Z,7.00
2023-04-15T09:51:08.370Z,7.28
2023-04-15T09:53:39.003Z,6.10
2023-04-15T09:56:09.157Z,5.57
2023-04-15T09:58:38.871Z,5.97
2023-04-15T10:01:09.324Z,6.00
2023-04-15T10:03:38.117Z,5.65
2023-04-15T10:06:08.350Z,5.28
2023-04-15T10:08:37.002Z,6.32
2023-04-15T10:11:06.011Z,5.00
2023-04-15T10:13:36.346Z,8.53
2023-04-15T10:16:10.497Z,6.57
2023-04-15T10:18:45.707Z,5.13
2023-04-15T10:21:18.632Z,5.60
2023-04-15T10:23:48.044Z,5.15
2023-04-15T10:26:18.367Z,5.30
2023-04-15T10:28:48.595Z,7.68
2023-04-15T10:31:18.573Z,7.00
2023-04-15T10:33:49.171Z,3.97
2023-04-15T10:36:21.251Z,5.35
2023-04-15T10:38:49.703Z,4.40
2023-04-15T10:41:21.548Z,5.13
2023-04-15T10:43:52.937Z,5.00
2023-04-15T10:46:24.606Z,5.63
2023-04-15T10:48:55.018Z,5.30
2023-04-15T10:51:33.915Z,4.50
2023-04-15T10:54:02.614Z,4.63
2023-04-15T10:56:31.919Z,5.00
2023-04-15T10:59:03.336Z,4.45
2023-04-15T11:02:00.469Z,5.55
2023-04-15T11:05:02.644Z,4.27
2023-04-15T11:07:41.615Z,4.57
2023-04-15T11:10:56.211Z,5.40
2023-04-15T11:13:29.494Z,4.70
2023-04-15T11:16:03.637Z,6.15
2023-04-15T11:18:35.389Z,7.70
2023-04-15T11:21:09.560Z,5.30
2023-04-15T11:23:44.444Z,5.35
2023-04-15T11:26:12.994Z,6.85
2023-04-15T11:28:43.696Z,5.63
2023-04-15T11:31:15.176Z,5.07
2023-04-15T11:33:48.884Z,5.20
2023-04-15T11:36:18.076Z,5.10
2023-04-15T11:38:49.019Z,5.38
2023-04-15T11:41:22.000Z,5.30
2023-04-15T11:43:51.258Z,6.07
2023-04-15T11:46:20.373Z,5.25
2023-04-15T11:48:48.977Z,4.93
2023-04-15T11:51:17.712Z,5.28
2023-04-15T11:53:49.577Z,5.80
2023-04-15T11:56:23.899Z,5.97
2023-04-15T11:58:57.046Z,5.28
2023-04-15T12:01:33.613Z,4.93
2023-04-15T12:04:04.371Z,4.88
2023-04-15T12:06:37.080Z,6.15
2023-04-15T12:09:12.222Z,4.90
2023-04-15T12:11:45.025Z,5.38
2023-04-15T12:14:20.034Z,4.57
2023-04-15T12:16:52.012Z,7.10
2023-04-15T12:19:25.985Z,5.15
2023-04-15T12:22:00.609Z,5.13
2023-04-15T12:24:33.760Z,6.50
2023-04-15T12:27:05.664Z,4.55
2023-04-15T12:29:36.646Z,4.35
2023-04-15T12:32:11.089Z,3.60
2023-04-15T12:34:41.896Z,5.10
2023-04-15T12:37:12.169Z,9.00
2023-04-15T12:39:43.926Z,6.03
2023-04-15T12:42:13.677Z,5.05
2023-04-15T12:44:42.276Z,4.10
2023-04-15T12:47:12.228Z,7.40
2023-04-15T12:49:41.123Z,6.53
2023-04-15T12:52:10.008Z,6.85
2023-04-15T12:54:38.436Z,5.85
2023-04-15T12:57:08.440Z,6.45
2023-04-15T12:59:37.589Z,5.17
2023-04-15T13:02:06.497Z,6.35
2023-04-15T13:04:35.127Z,6.30
2023-04-15T13:07:03.844Z,4.82
2023-04-15T13:09:32.642Z,6.45
2023-04-15T13:12:01.507Z,6.53
2023-04-15T13:14:31.655Z,6.28
2023-04-15T13:17:01.535Z,6.97
2023-04-15T13:19:30.091Z,11.18
2023-04-15T13:21:58.516Z,6.15
2023-04-15T13:24:27.029Z,4.70
2023-04-15T13:26:57.238Z,5.82
2023-04-15T13:29:26.044Z,5.65
2023-04-15T13:31:55.986Z,4.63
2023-04-15T13:34:24.521Z,7.75
2023-04-15T13:36:53.093Z,7.53
2023-04-15T13:39:21.610Z,5.90
2023-04-15T13:41:50.151Z,6.60
2023-04-15T13:44:20.898Z,9.38
2023-04-15T13:46:50.454Z,9.70
2023-04-15T13:49:20.604Z,7.70
2023-04-15T13:51:49.031Z,6.78
2023-04-15T13:54:17.455Z,6.50
2023-04-15T13:56:46.026Z,6.25
2023-04-15T13:59:14.724Z,5.40
2023-04-15T14:01:43.819Z,6.67
2023-04-15T14:04:12.617Z,5.22
2023-04-15T14:06:42.603Z,5.88
2023-04-15T14:09:12.663Z,5.20
2023-04-15T14:11:41.108Z,4.97
2023-04-15T14:14:09.863Z,7.30
2023-04-15T14:16:38.349Z,6.90
2023-04-15T14:19:07.022Z,9.05
2023-04-15T14:21:35.846Z,6.72
2023-04-15T14:24:06.526Z,5.85
2023-04-15T14:26:35.080Z,5.43
2023-04-15T14:29:03.716Z,6.00
2023-04-15T14:31:32.533Z,8.95
2023-04-15T14:34:00.955Z,6.32
2023-04-15T14:36:29.434Z,5.90
2023-04-15T14:38:57.879Z,4.87
2023-04-15T14:41:27.789Z,5.53
2023-04-15T14:43:57.636Z,4.65
2023-04-15T14:46:26.695Z,6.45
2023-04-15T14:48:55.650Z,5.80
2023-04-15T14:51:24.859Z,5.23
2023-04-15T14:53:53.295Z,5.30
2023-04-15T14:56:21.711Z,5.82
2023-04-15T14:58:53.226Z,5.97
2023-04-15T15:01:22.446Z,6.38
2023-04-15T15:03:51.407Z,6.13
2023-04-15T15:06:21.910Z,6.35
2023-04-15T15:08:51.222Z,4.00
2023-04-15T15:11:19.720Z,5.10
2023-04-15T15:13:48.152Z,4.50
2023-04-15T15:16:18.312Z,4.37
2023-04-15T15:18:46.886Z,3.92
2023-04-15T15:21:15.342Z,3.83
2023-04-15T15:23:43.827Z,3.97
2023-04-15T15:26:12.876Z,5.57
2023-04-15T15:28:42.247Z,3.77
2023-04-15T15:31:10.986Z,6.35
2023-04-15T15:33:41.094Z,4.05
2023-04-15T15:36:10.937Z,4.72
2023-04-15T15:38:39.391Z,5.68
2023-04-15T15:41:08.118Z,5.20
2023-04-15T15:43:36.604Z,5.38
2023-04-15T15:46:05.959Z,5.35
2023-04-15T15:48:34.485Z,4.25
2023-04-15T15:51:04.888Z,4.75
2023-04-15T15:53:33.385Z,6.10
2023-04-15T15:56:03.756Z,5.93
2023-04-15T15:58:32.331Z,6.72
2023-04-15T16:01:01.891Z,5.07
2023-04-15T16:03:31.328Z,6.47
2023-04-15T16:05:59.904Z,5.77
2023-04-15T16:08:29.836Z,6.20
2023-04-15T16:10:58.347Z,6.30
2023-04-15T16:13:26.824Z,5.22
2023-04-15T16:15:55.281Z,6.72
2023-04-15T16:18:23.721Z,7.67
2023-04-15T16:20:52.158Z,4.80
2023-04-15T16:23:21.203Z,6.10
2023-04-15T16:25:52.565Z,7.07
2023-04-15T16:28:26.989Z,6.22
2023-04-15T16:30:56.278Z,5.70
2023-04-15T16:33:24.822Z,8.80
2023-04-15T16:35:53.521Z,5.00
2023-04-15T16:38:22.717Z,5.03
2023-04-15T16:40:52.956Z,8.25
2023-04-15T16:43:21.489Z,8.03
2023-04-15T16:45:51.548Z,6.85
2023-04-15T16:48:20.971Z,6.60
2023-04-15T16:50:49.940Z,20.52
2023-04-15T16:53:18.662Z,35.60
2023-04-15T16:55:47.080Z,20.33
2023-04-15T16:58:16.991Z,7.00
2023-04-15T17:00:45.979Z,6.13
2023-04-15T17:03:14.593Z,9.07
2023-04-15T17:05:43.416Z,12.05
2023-04-15T17:08:11.851Z,13.53
2023-04-15T17:10:40.351Z,9.48
2023-04-15T17:13:09.256Z,9.57
2023-04-15T17:15:39.120Z,12.60
2023-04-15T17:18:11.509Z,14.57
2023-04-15T17:20:40.830Z,10.27
2023-04-15T17:23:09.273Z,12.70
2023-04-15T17:25:37.861Z,8.20
2023-04-15T17:28:06.612Z,6.68
2023-04-15T17:30:35.100Z,6.97
2023-04-15T17:33:57.496Z,8.37
2023-04-15T17:35:53.683Z,6.70
2023-04-15T17:38:22.127Z,9.15
2023-04-15T17:40:51.673Z,9.95
2023-04-15T17:43:20.229Z,6.10
2023-04-15T17:45:48.818Z,6.70
2023-04-15T17:48:18.611Z,5.60
2023-04-15T17:50:47.010Z,5.85
2023-04-15T17:53:15.544Z,7.03
2023-04-15T17:55:44.086Z,7.70
2023-04-15T17:58:12.556Z,6.80
2023-04-15T18:00:41.051Z,5.10
2023-04-15T18:03:09.659Z,7.38
2023-04-15T18:05:41.362Z,6.60
2023-04-15T18:08:11.140Z,7.50
2023-04-15T18:10:40.639Z,8.13
2023-04-15T18:13:10.047Z,8.52
2023-04-15T18:15:38.692Z,6.35
2023-04-15T18:18:07.584Z,6.47
2023-04-15T18:20:36.130Z,7.50
2023-04-15T18:23:05.962Z,5.67
2023-04-15T18:25:34.970Z,8.50
2023-04-15T18:28:03.835Z,6.40
2023-04-15T18:30:32.354Z,6.53
2023-04-15T18:33:00.863Z,6.55
2023-04-15T18:35:30.133Z,6.03
2023-04-15T18:37:59.136Z,5.07
2023-04-15T18:40:29.110Z,6.70
2023-04-15T18:42:57.809Z,5.53
2023-04-15T18:45:26.357Z,7.25
2023-04-15T18:47:54.981Z,7.07
2023-04-15T18:50:23.463Z,7.22
2023-04-15T18:52:51.882Z,6.40
2023-04-15T18:55:20.803Z,5.53
2023-04-15T18:57:51.039Z,7.70
2023-04-15T19:00:19.920Z,6.90
2023-04-15T19:02:48.534Z,5.38
2023-04-15T19:05:17.166Z,6.75
2023-04-15T19:07:45.810Z,5.43
2023-04-15T19:10:14.583Z,6.22
2023-04-15T19:12:43.152Z,8.37
2023-04-15T19:15:13.334Z,5.93
2023-04-15T19:17:42.014Z,5.68
2023-04-15T19:20:11.424Z,4.72
2023-04-15T19:22:40.003Z,5.97
2023-04-15T19:25:09.650Z,5.50
2023-04-15T19:27:38.337Z,6.95
2023-04-15T19:30:08.592Z,5.70
2023-04-15T19:32:38.422Z,5.65
2023-04-15T19:35:09.932Z,6.60
2023-04-15T19:37:39.755Z,7.03
2023-04-15T19:40:10.014Z,6.70
2023-04-15T19:42:38.437Z,5.85
2023-04-15T19:45:08.272Z,6.80
2023-04-15T19:47:38.260Z,7.45
2023-04-15T19:50:10.041Z,5.97
2023-04-15T19:52:38.917Z,9.18
2023-04-15T19:55:08.032Z,7.10
2023-04-15T19:57:36.552Z,5.57
2023-04-15T20:00:06.993Z,7.38
2023-04-15T20:02:35.574Z,6.40
2023-04-15T20:05:09.738Z,5.65
2023-04-15T20:07:39.909Z,5.85
2023-04-15T20:10:13.049Z,5.82
2023-04-15T20:12:50.395Z,6.13
2023-04-15T20:15:22.724Z,6.97
2023-04-15T20:17:51.323Z,5.90
2023-04-15T20:20:21.696Z,6.13
2023-04-15T20:22:50.583Z,5.72
2023-04-15T20:25:19.050Z,5.45
2023-04-15T20:27:47.479Z,5.57
2023-04-15T20:30:16.057Z,5.10
2023-04-15T20:32:44.679Z,5.13
2023-04-15T20:35:13.151Z,7.47
2023-04-15T20:37:45.332Z,4.93
2023-04-15T20:40:15.532Z,5.10
2023-04-15T20:42:44.394Z,4.75
2023-04-15T20:45:13.221Z,5.90
2023-04-15T20:47:41.937Z,5.00
2023-04-15T20:50:12.221Z,5.78
2023-04-15T20:55:31.706Z,4.80
2023-04-15T20:58:00.826Z,5.25
2023-04-15T21:00:29.611Z,5.35
2023-04-15T21:02:58.208Z,5.13
2023-04-15T21:05:27.654Z,8.63
2023-04-15T21:07:57.462Z,5.50
2023-04-15T21:10:26.364Z,5.78
2023-04-15T21:12:54.786Z,5.55
2023-04-15T21:15:23.653Z,5.75
2023-04-15T21:17:52.143Z,5.90
2023-04-15T21:20:20.813Z,5.65
2023-04-15T21:22:49.450Z,5.05
2023-04-15T21:25:19.432Z,5.10
2023-04-15T21:27:48.650Z,5.13
2023-04-15T21:30:17.124Z,5.30
2023-04-15T21:32:46.692Z,4.75
2023-04-15T21:35:15.421Z,5.82
2023-04-15T21:37:43.864Z,5.00
2023-04-15T21:40:13.393Z,5.05
2023-04-15T21:42:43.257Z,5.20
2023-04-15T21:45:13.318Z,4.88
2023-04-15T21:48:07.753Z,4.63
2023-04-15T21:50:30.502Z,4.80
2023-04-15T21:52:59.350Z,5.78
2023-04-15T21:55:28.189Z,5.30
2023-04-15T21:57:58.024Z,4.88
2023-04-15T22:00:26.516Z,5.30
2023-04-15T22:02:55.084Z,6.25
2023-04-15T22:05:23.747Z,5.50
2023-04-15T22:07:52.166Z,4.70
2023-04-15T22:10:21.042Z,5.30
2023-04-15T22:12:49.476Z,5.00
2023-04-15T22:15:19.275Z,5.15
2023-04-15T22:17:47.777Z,4.40
2023-04-15T22:20:16.380Z,4.73
2023-04-15T22:22:45.023Z,5.18
2023-04-15T22:25:13.741Z,4.78
2023-04-15T22:27:42.185Z,5.03
2023-04-15T22:30:12.506Z,5.13
2023-04-15T22:32:42.523Z,4.53
2023-04-15T22:35:11.073Z,4.72
2023-04-15T22:37:39.575Z,5.32
2023-04-15T22:40:09.665Z,5.50
2023-04-15T22:42:38.110Z,6.55
2023-04-15T22:45:08.503Z,5.07
2023-04-15T22:47:36.975Z,5.30
2023-04-15T22:50:08.822Z,5.55
2023-04-15T22:52:37.274Z,4.78
2023-04-15T22:55:06.597Z,5.13
2023-04-15T22:57:35.038Z,4.83
2023-04-15T23:00:04.090Z,5.85
2023-04-15T23:02:32.634Z,6.10
2023-04-15T23:05:01.642Z,5.30
2023-04-15T23:07:42.602Z,4.90
2023-04-15T23:10:11.679Z,5.13
2023-04-15T23:12:40.136Z,5.40
2023-04-15T23:15:10.456Z,5.82
2023-04-15T23:17:38.984Z,5.20
2023-04-15T23:20:08.654Z,5.35
2023-04-15T23:22:37.930Z,4.93
2023-04-15T23:25:08.676Z,5.28
2023-04-15T23:27:37.929Z,4.70
2023-04-15T23:30:08.245Z,5.45
2023-04-15T23:32:36.737Z,5.03
2023-04-15T23:35:06.197Z,4.73
2023-04-15T23:37:34.638Z,5.72
2023-04-15T23:40:03.672Z,5.10
2023-04-15T23:42:33.496Z,5.40
2023-04-15T23:45:01.912Z,5.75
2023-04-15T23:47:30.455Z,5.67
2023-04-15T23:52:45.080Z,5.20
2023-04-15T23:55:13.708Z,5.78
2023-04-15T23:57:43.488Z,5.05
